Aviation Digital Data Service (ADDS)

Output produced by METARs form (1710 UTC 03 August 2015)
found at http://aviationweather.gov/adds/metars/
 
KPBG 031120Z 0312/0412 17012KT P6SM BKN150 
     FM031300 18012G20KT P6SM SCT060 BKN150 
     FM031700 20013G25KT P6SM VCSH SCT040 BKN090 
     FM032000 21009G18KT 6SM +SHRA BKN040 BKN090 
     FM040100 22012KT P6SM VCSH BKN060